sensor_id;sensor_type;location;lat;lon;timestamp;P1;durP1;ratioP1;P2;durP2;ratioP2
5967;SDS011;3010;51.028;4.170;2023-06-22T00:02:05;8.38;;;7.62;;
5967;SDS011;3010;51.028;4.170;2023-06-22T00:04:32;8.00;;;7.20;;
5967;SDS011;3010;51.028;4.170;2023-06-22T00:06:58;7.23;;;6.63;;
5967;SDS011;3010;51.028;4.170;2023-06-22T00:09:25;5.73;;;5.33;;
5967;SDS011;3010;51.028;4.170;2023-06-22T00:11:52;6.77;;;5.70;;
5967;SDS011;3010;51.028;4.170;2023-06-22T00:14:19;7.03;;;5.77;;
5967;SDS011;3010;51.028;4.170;2023-06-22T00:16:46;6.70;;;6.10;;
5967;SDS011;3010;51.028;4.170;2023-06-22T00:19:13;11.10;;;6.80;;
5967;SDS011;3010;51.028;4.170;2023-06-22T00:21:40;6.53;;;5.87;;
5967;SDS011;3010;51.028;4.170;2023-06-22T00:24:07;7.22;;;6.53;;
5967;SDS011;3010;51.028;4.170;2023-06-22T00:26:33;7.10;;;6.50;;
5967;SDS011;3010;51.028;4.170;2023-06-22T00:29:00;7.30;;;6.70;;
5967;SDS011;3010;51.028;4.170;2023-06-22T00:31:27;7.80;;;7.07;;
5967;SDS011;3010;51.028;4.170;2023-06-22T00:33:54;9.60;;;6.80;;
5967;SDS011;3010;51.028;4.170;2023-06-22T00:36:21;7.13;;;6.53;;
5967;SDS011;3010;51.028;4.170;2023-06-22T00:38:48;7.27;;;6.67;;
5967;SDS011;3010;51.028;4.170;2023-06-22T00:41:14;7.77;;;6.97;;
5967;SDS011;3010;51.028;4.170;2023-06-22T00:43:41;8.00;;;7.30;;
5967;SDS011;3010;51.028;4.170;2023-06-22T00:46:07;8.57;;;7.80;;
5967;SDS011;3010;51.028;4.170;2023-06-22T00:48:35;8.77;;;7.60;;
5967;SDS011;3010;51.028;4.170;2023-06-22T00:51:02;8.37;;;7.63;;
5967;SDS011;3010;51.028;4.170;2023-06-22T00:53:29;7.27;;;6.63;;
5967;SDS011;3010;51.028;4.170;2023-06-22T00:55:56;10.30;;;8.03;;
5967;SDS011;3010;51.028;4.170;2023-06-22T00:58:23;7.73;;;6.97;;
5967;SDS011;3010;51.028;4.170;2023-06-22T01:00:50;8.87;;;7.63;;
5967;SDS011;3010;51.028;4.170;2023-06-22T01:03:16;9.27;;;7.97;;
5967;SDS011;3010;51.028;4.170;2023-06-22T01:05:43;9.50;;;8.07;;
5967;SDS011;3010;51.028;4.170;2023-06-22T01:11:04;9.05;;;8.07;;
5967;SDS011;3010;51.028;4.170;2023-06-22T01:16:23;9.48;;;8.35;;
5967;SDS011;3010;51.028;4.170;2023-06-22T01:18:55;10.67;;;8.67;;
5967;SDS011;3010;51.028;4.170;2023-06-22T01:21:21;12.33;;;8.47;;
5967;SDS011;3010;51.028;4.170;2023-06-22T01:29:11;8.40;;;7.70;;
5967;SDS011;3010;51.028;4.170;2023-06-22T01:31:38;9.10;;;8.10;;
5967;SDS011;3010;51.028;4.170;2023-06-22T01:34:05;8.60;;;7.80;;
5967;SDS011;3010;51.028;4.170;2023-06-22T01:36:32;8.93;;;8.00;;
5967;SDS011;3010;51.028;4.170;2023-06-22T01:38:58;8.67;;;7.77;;
5967;SDS011;3010;51.028;4.170;2023-06-22T01:41:25;9.73;;;8.43;;
5967;SDS011;3010;51.028;4.170;2023-06-22T01:43:52;9.17;;;8.33;;
5967;SDS011;3010;51.028;4.170;2023-06-22T01:46:19;9.13;;;8.23;;
5967;SDS011;3010;51.028;4.170;2023-06-22T01:48:46;8.27;;;7.13;;
5967;SDS011;3010;51.028;4.170;2023-06-22T01:51:13;8.53;;;7.83;;
5967;SDS011;3010;51.028;4.170;2023-06-22T01:53:39;8.17;;;7.37;;
5967;SDS011;3010;51.028;4.170;2023-06-22T01:56:06;9.10;;;8.20;;
5967;SDS011;3010;51.028;4.170;2023-06-22T01:58:34;9.95;;;8.70;;
5967;SDS011;3010;51.028;4.170;2023-06-22T02:01:10;8.43;;;7.73;;
5967;SDS011;3010;51.028;4.170;2023-06-22T02:03:43;9.30;;;8.17;;
5967;SDS011;3010;51.028;4.170;2023-06-22T02:06:06;10.55;;;9.55;;
5967;SDS011;3010;51.028;4.170;2023-06-22T02:08:37;10.17;;;9.13;;
5967;SDS011;3010;51.028;4.170;2023-06-22T02:10:59;10.20;;;9.20;;
5967;SDS011;3010;51.028;4.170;2023-06-22T02:13:26;13.60;;;7.90;;
5967;SDS011;3010;51.028;4.170;2023-06-22T02:15:53;10.23;;;8.87;;
5967;SDS011;3010;51.028;4.170;2023-06-22T02:18:19;9.07;;;8.17;;
5967;SDS011;3010;51.028;4.170;2023-06-22T02:20:46;10.33;;;8.97;;
5967;SDS011;3010;51.028;4.170;2023-06-22T02:23:13;11.53;;;9.13;;
5967;SDS011;3010;51.028;4.170;2023-06-22T02:25:40;9.57;;;8.63;;
5967;SDS011;3010;51.028;4.170;2023-06-22T02:28:07;8.97;;;8.27;;
5967;SDS011;3010;51.028;4.170;2023-06-22T02:30:34;11.60;;;8.23;;
5967;SDS011;3010;51.028;4.170;2023-06-22T02:33:01;10.23;;;8.90;;
5967;SDS011;3010;51.028;4.170;2023-06-22T02:35:28;12.03;;;8.90;;
5967;SDS011;3010;51.028;4.170;2023-06-22T02:38:00;9.30;;;8.40;;
5967;SDS011;3010;51.028;4.170;2023-06-22T02:40:27;10.13;;;8.57;;
5967;SDS011;3010;51.028;4.170;2023-06-22T02:42:53;10.80;;;8.60;;
5967;SDS011;3010;51.028;4.170;2023-06-22T02:45:20;9.30;;;8.40;;
5967;SDS011;3010;51.028;4.170;2023-06-22T02:47:47;10.23;;;9.00;;
5967;SDS011;3010;51.028;4.170;2023-06-22T02:50:14;10.33;;;8.23;;
5967;SDS011;3010;51.028;4.170;2023-06-22T02:52:40;9.77;;;7.47;;
5967;SDS011;3010;51.028;4.170;2023-06-22T02:55:07;9.97;;;7.97;;
5967;SDS011;3010;51.028;4.170;2023-06-22T02:57:34;9.23;;;8.03;;
5967;SDS011;3010;51.028;4.170;2023-06-22T03:00:02;10.63;;;8.50;;
5967;SDS011;3010;51.028;4.170;2023-06-22T03:02:27;8.37;;;7.57;;
5967;SDS011;3010;51.028;4.170;2023-06-22T03:04:54;8.13;;;7.30;;
5967;SDS011;3010;51.028;4.170;2023-06-22T03:07:21;8.63;;;7.80;;
5967;SDS011;3010;51.028;4.170;2023-06-22T03:09:47;10.57;;;8.60;;
5967;SDS011;3010;51.028;4.170;2023-06-22T03:12:14;8.00;;;7.30;;
5967;SDS011;3010;51.028;4.170;2023-06-22T03:14:40;14.17;;;8.63;;
5967;SDS011;3010;51.028;4.170;2023-06-22T03:17:08;11.33;;;8.30;;
5967;SDS011;3010;51.028;4.170;2023-06-22T03:19:34;9.40;;;7.93;;
5967;SDS011;3010;51.028;4.170;2023-06-22T03:22:00;9.87;;;7.67;;
5967;SDS011;3010;51.028;4.170;2023-06-22T03:24:27;9.37;;;7.97;;
5967;SDS011;3010;51.028;4.170;2023-06-22T03:26:56;8.73;;;7.83;;
5967;SDS011;3010;51.028;4.170;2023-06-22T03:29:23;10.40;;;8.30;;
5967;SDS011;3010;51.028;4.170;2023-06-22T03:31:49;7.93;;;7.20;;
5967;SDS011;3010;51.028;4.170;2023-06-22T03:34:16;12.73;;;7.57;;
5967;SDS011;3010;51.028;4.170;2023-06-22T03:36:42;10.63;;;8.20;;
5967;SDS011;3010;51.028;4.170;2023-06-22T03:39:09;12.70;;;8.50;;
5967;SDS011;3010;51.028;4.170;2023-06-22T03:41:35;8.67;;;7.50;;
5967;SDS011;3010;51.028;4.170;2023-06-22T03:44:02;8.93;;;7.57;;
5967;SDS011;3010;51.028;4.170;2023-06-22T03:46:29;8.43;;;7.73;;
5967;SDS011;3010;51.028;4.170;2023-06-22T03:48:55;8.85;;;8.05;;
5967;SDS011;3010;51.028;4.170;2023-06-22T03:51:22;9.03;;;7.43;;
5967;SDS011;3010;51.028;4.170;2023-06-22T03:53:48;8.33;;;7.57;;
5967;SDS011;3010;51.028;4.170;2023-06-22T03:56:15;8.93;;;7.62;;
5967;SDS011;3010;51.028;4.170;2023-06-22T03:58:42;7.95;;;7.30;;
5967;SDS011;3010;51.028;4.170;2023-06-22T04:01:08;8.98;;;7.60;;
5967;SDS011;3010;51.028;4.170;2023-06-22T04:03:35;8.50;;;7.70;;
5967;SDS011;3010;51.028;4.170;2023-06-22T04:06:01;8.60;;;7.70;;
5967;SDS011;3010;51.028;4.170;2023-06-22T04:08:28;8.83;;;7.60;;
5967;SDS011;3010;51.028;4.170;2023-06-22T04:10:54;8.75;;;8.00;;
5967;SDS011;3010;51.028;4.170;2023-06-22T04:13:21;8.93;;;7.93;;
5967;SDS011;3010;51.028;4.170;2023-06-22T04:15:48;9.10;;;7.53;;
5967;SDS011;3010;51.028;4.170;2023-06-22T04:18:14;9.37;;;7.80;;
5967;SDS011;3010;51.028;4.170;2023-06-22T04:20:41;8.93;;;7.90;;
5967;SDS011;3010;51.028;4.170;2023-06-22T04:23:07;8.87;;;7.60;;
5967;SDS011;3010;51.028;4.170;2023-06-22T04:25:34;8.80;;;8.10;;
5967;SDS011;3010;51.028;4.170;2023-06-22T04:28:01;9.63;;;8.60;;
5967;SDS011;3010;51.028;4.170;2023-06-22T04:30:27;9.10;;;8.20;;
5967;SDS011;3010;51.028;4.170;2023-06-22T04:32:54;8.97;;;7.80;;
5967;SDS011;3010;51.028;4.170;2023-06-22T04:35:23;9.23;;;7.40;;
5967;SDS011;3010;51.028;4.170;2023-06-22T04:37:50;9.13;;;8.23;;
5967;SDS011;3010;51.028;4.170;2023-06-22T04:40:16;9.47;;;7.73;;
5967;SDS011;3010;51.028;4.170;2023-06-22T04:42:43;14.40;;;9.07;;
5967;SDS011;3010;51.028;4.170;2023-06-22T04:45:09;10.60;;;8.77;;
5967;SDS011;3010;51.028;4.170;2023-06-22T04:47:36;9.03;;;7.83;;
5967;SDS011;3010;51.028;4.170;2023-06-22T04:50:03;9.87;;;8.40;;
5967;SDS011;3010;51.028;4.170;2023-06-22T04:52:29;9.33;;;8.43;;
5967;SDS011;3010;51.028;4.170;2023-06-22T04:54:56;10.40;;;8.40;;
5967;SDS011;3010;51.028;4.170;2023-06-22T04:57:23;10.70;;;8.20;;
5967;SDS011;3010;51.028;4.170;2023-06-22T04:59:49;9.83;;;7.97;;
5967;SDS011;3010;51.028;4.170;2023-06-22T05:02:16;9.10;;;8.30;;
5967;SDS011;3010;51.028;4.170;2023-06-22T05:04:42;9.53;;;8.47;;
5967;SDS011;3010;51.028;4.170;2023-06-22T05:07:09;10.63;;;8.47;;
5967;SDS011;3010;51.028;4.170;2023-06-22T05:09:35;9.40;;;8.60;;
5967;SDS011;3010;51.028;4.170;2023-06-22T05:12:02;9.37;;;8.43;;
5967;SDS011;3010;51.028;4.170;2023-06-22T05:14:29;9.83;;;8.73;;
5967;SDS011;3010;51.028;4.170;2023-06-22T05:16:55;10.13;;;9.18;;
5967;SDS011;3010;51.028;4.170;2023-06-22T05:19:22;12.90;;;9.80;;
5967;SDS011;3010;51.028;4.170;2023-06-22T05:21:49;9.77;;;8.87;;
5967;SDS011;3010;51.028;4.170;2023-06-22T05:24:15;10.07;;;9.03;;
5967;SDS011;3010;51.028;4.170;2023-06-22T05:26:42;11.07;;;9.00;;
5967;SDS011;3010;51.028;4.170;2023-06-22T05:29:08;9.00;;;8.17;;
5967;SDS011;3010;51.028;4.170;2023-06-22T05:31:35;10.17;;;9.00;;
5967;SDS011;3010;51.028;4.170;2023-06-22T05:34:02;10.10;;;9.10;;
5967;SDS011;3010;51.028;4.170;2023-06-22T05:36:28;14.93;;;10.13;;
5967;SDS011;3010;51.028;4.170;2023-06-22T05:38:56;10.10;;;8.97;;
5967;SDS011;3010;51.028;4.170;2023-06-22T05:41:21;11.37;;;9.50;;
5967;SDS011;3010;51.028;4.170;2023-06-22T05:43:48;10.90;;;10.00;;
5967;SDS011;3010;51.028;4.170;2023-06-22T05:46:15;12.43;;;9.20;;
5967;SDS011;3010;51.028;4.170;2023-06-22T05:48:41;10.33;;;9.13;;
5967;SDS011;3010;51.028;4.170;2023-06-22T05:51:08;11.80;;;9.20;;
5967;SDS011;3010;51.028;4.170;2023-06-22T05:53:35;12.35;;;10.50;;
5967;SDS011;3010;51.028;4.170;2023-06-22T05:56:01;10.80;;;9.23;;
5967;SDS011;3010;51.028;4.170;2023-06-22T05:58:28;11.00;;;10.00;;
5967;SDS011;3010;51.028;4.170;2023-06-22T06:00:54;11.90;;;10.70;;
5967;SDS011;3010;51.028;4.170;2023-06-22T06:03:21;10.53;;;9.63;;
5967;SDS011;3010;51.028;4.170;2023-06-22T06:05:48;12.10;;;10.70;;
5967;SDS011;3010;51.028;4.170;2023-06-22T06:08:14;10.73;;;9.70;;
5967;SDS011;3010;51.028;4.170;2023-06-22T06:10:41;11.93;;;10.20;;
5967;SDS011;3010;51.028;4.170;2023-06-22T06:13:07;11.90;;;10.70;;
5967;SDS011;3010;51.028;4.170;2023-06-22T06:15:34;11.53;;;10.33;;
5967;SDS011;3010;51.028;4.170;2023-06-22T06:18:01;12.60;;;11.40;;
5967;SDS011;3010;51.028;4.170;2023-06-22T06:20:27;12.93;;;11.67;;
5967;SDS011;3010;51.028;4.170;2023-06-22T06:22:54;12.77;;;11.60;;
5967;SDS011;3010;51.028;4.170;2023-06-22T06:25:20;14.67;;;11.67;;
5967;SDS011;3010;51.028;4.170;2023-06-22T06:27:48;12.20;;;10.90;;
5967;SDS011;3010;51.028;4.170;2023-06-22T06:30:14;15.43;;;12.17;;
5967;SDS011;3010;51.028;4.170;2023-06-22T06:32:40;16.60;;;13.50;;
5967;SDS011;3010;51.028;4.170;2023-06-22T06:35:07;14.73;;;13.23;;
5967;SDS011;3010;51.028;4.170;2023-06-22T06:37:38;13.77;;;12.27;;
5967;SDS011;3010;51.028;4.170;2023-06-22T06:40:04;14.37;;;12.87;;
5967;SDS011;3010;51.028;4.170;2023-06-22T06:42:40;16.27;;;13.70;;
5967;SDS011;3010;51.028;4.170;2023-06-22T06:45:06;15.70;;;12.67;;
5967;SDS011;3010;51.028;4.170;2023-06-22T06:47:32;17.43;;;13.40;;
5967;SDS011;3010;51.028;4.170;2023-06-22T06:49:59;16.15;;;14.25;;
5967;SDS011;3010;51.028;4.170;2023-06-22T06:52:26;18.13;;;14.13;;
5967;SDS011;3010;51.028;4.170;2023-06-22T06:54:52;16.10;;;14.40;;
5967;SDS011;3010;51.028;4.170;2023-06-22T06:57:19;20.53;;;14.87;;
5967;SDS011;3010;51.028;4.170;2023-06-22T06:59:45;19.67;;;15.93;;
5967;SDS011;3010;51.028;4.170;2023-06-22T07:02:12;20.93;;;14.10;;
5967;SDS011;3010;51.028;4.170;2023-06-22T07:04:39;17.90;;;14.33;;
5967;SDS011;3010;51.028;4.170;2023-06-22T07:07:05;16.23;;;14.57;;
5967;SDS011;3010;51.028;4.170;2023-06-22T07:09:32;18.70;;;14.80;;
5967;SDS011;3010;51.028;4.170;2023-06-22T07:11:58;19.93;;;14.83;;
5967;SDS011;3010;51.028;4.170;2023-06-22T07:14:25;17.58;;;15.65;;
5967;SDS011;3010;51.028;4.170;2023-06-22T07:16:52;17.07;;;15.37;;
5967;SDS011;3010;51.028;4.170;2023-06-22T07:19:23;18.03;;;14.77;;
5967;SDS011;3010;51.028;4.170;2023-06-22T07:21:45;16.70;;;15.07;;
5967;SDS011;3010;51.028;4.170;2023-06-22T07:24:11;17.92;;;15.98;;
5967;SDS011;3010;51.028;4.170;2023-06-22T07:26:38;16.93;;;15.23;;
5967;SDS011;3010;51.028;4.170;2023-06-22T07:29:05;18.20;;;14.87;;
5967;SDS011;3010;51.028;4.170;2023-06-22T07:31:31;17.40;;;15.67;;
5967;SDS011;3010;51.028;4.170;2023-06-22T07:33:58;20.93;;;16.17;;
5967;SDS011;3010;51.028;4.170;2023-06-22T07:36:24;17.73;;;15.87;;
5967;SDS011;3010;51.028;4.170;2023-06-22T07:38:51;18.73;;;15.73;;
5967;SDS011;3010;51.028;4.170;2023-06-22T07:41:18;18.80;;;16.37;;
5967;SDS011;3010;51.028;4.170;2023-06-22T07:43:44;19.17;;;16.45;;
5967;SDS011;3010;51.028;4.170;2023-06-22T07:46:11;18.80;;;16.50;;
5967;SDS011;3010;51.028;4.170;2023-06-22T07:48:37;18.87;;;16.12;;
5967;SDS011;3010;51.028;4.170;2023-06-22T07:51:04;17.87;;;16.13;;
5967;SDS011;3010;51.028;4.170;2023-06-22T07:53:30;20.00;;;15.17;;
5967;SDS011;3010;51.028;4.170;2023-06-22T07:55:57;19.63;;;15.13;;
5967;SDS011;3010;51.028;4.170;2023-06-22T07:58:24;22.63;;;15.10;;
5967;SDS011;3010;51.028;4.170;2023-06-22T08:00:50;17.47;;;15.50;;
5967;SDS011;3010;51.028;4.170;2023-06-22T08:03:17;16.27;;;14.73;;
5967;SDS011;3010;51.028;4.170;2023-06-22T08:05:43;16.73;;;14.87;;
5967;SDS011;3010;51.028;4.170;2023-06-22T08:08:10;17.23;;;15.47;;
5967;SDS011;3010;51.028;4.170;2023-06-22T08:10:37;16.97;;;15.27;;
5967;SDS011;3010;51.028;4.170;2023-06-22T08:13:03;19.13;;;15.13;;
5967;SDS011;3010;51.028;4.170;2023-06-22T08:15:30;15.20;;;13.73;;
5967;SDS011;3010;51.028;4.170;2023-06-22T08:17:56;17.83;;;15.13;;
5967;SDS011;3010;51.028;4.170;2023-06-22T08:20:23;15.40;;;13.90;;
5967;SDS011;3010;51.028;4.170;2023-06-22T08:22:50;16.07;;;14.37;;
5967;SDS011;3010;51.028;4.170;2023-06-22T08:25:16;16.25;;;14.57;;
5967;SDS011;3010;51.028;4.170;2023-06-22T08:27:46;14.93;;;13.43;;
5967;SDS011;3010;51.028;4.170;2023-06-22T08:30:12;16.60;;;15.02;;
5967;SDS011;3010;51.028;4.170;2023-06-22T08:32:39;15.27;;;13.77;;
5967;SDS011;3010;51.028;4.170;2023-06-22T08:35:06;15.33;;;13.87;;
5967;SDS011;3010;51.028;4.170;2023-06-22T08:37:32;29.90;;;13.13;;
5967;SDS011;3010;51.028;4.170;2023-06-22T08:39:59;14.53;;;13.23;;
5967;SDS011;3010;51.028;4.170;2023-06-22T08:42:25;15.73;;;13.87;;
5967;SDS011;3010;51.028;4.170;2023-06-22T08:44:52;14.73;;;13.33;;
5967;SDS011;3010;51.028;4.170;2023-06-22T08:47:19;15.37;;;12.63;;
5967;SDS011;3010;51.028;4.170;2023-06-22T08:49:45;14.40;;;13.00;;
5967;SDS011;3010;51.028;4.170;2023-06-22T08:52:12;15.20;;;13.70;;
5967;SDS011;3010;51.028;4.170;2023-06-22T08:54:38;16.03;;;13.50;;
5967;SDS011;3010;51.028;4.170;2023-06-22T08:57:05;15.35;;;13.95;;
5967;SDS011;3010;51.028;4.170;2023-06-22T08:59:32;15.27;;;13.80;;
5967;SDS011;3010;51.028;4.170;2023-06-22T09:01:58;13.50;;;12.10;;
5967;SDS011;3010;51.028;4.170;2023-06-22T09:04:25;13.00;;;11.67;;
5967;SDS011;3010;51.028;4.170;2023-06-22T09:06:52;13.95;;;12.45;;
5967;SDS011;3010;51.028;4.170;2023-06-22T09:09:18;13.93;;;11.77;;
5967;SDS011;3010;51.028;4.170;2023-06-22T09:11:45;13.85;;;11.98;;
5967;SDS011;3010;51.028;4.170;2023-06-22T09:14:11;13.27;;;12.03;;
5967;SDS011;3010;51.028;4.170;2023-06-22T09:16:38;12.67;;;11.37;;
5967;SDS011;3010;51.028;4.170;2023-06-22T09:19:05;13.93;;;11.77;;
5967;SDS011;3010;51.028;4.170;2023-06-22T09:21:31;12.90;;;11.60;;
5967;SDS011;3010;51.028;4.170;2023-06-22T09:23:58;13.53;;;12.27;;
5967;SDS011;3010;51.028;4.170;2023-06-22T09:26:24;12.97;;;10.87;;
5967;SDS011;3010;51.028;4.170;2023-06-22T09:28:51;12.67;;;11.47;;
5967;SDS011;3010;51.028;4.170;2023-06-22T09:31:18;14.93;;;12.98;;
5967;SDS011;3010;51.028;4.170;2023-06-22T09:33:44;14.65;;;13.15;;
5967;SDS011;3010;51.028;4.170;2023-06-22T09:36:11;19.67;;;16.00;;
5967;SDS011;3010;51.028;4.170;2023-06-22T09:38:38;18.90;;;15.60;;
5967;SDS011;3010;51.028;4.170;2023-06-22T09:41:04;18.73;;;16.87;;
5967;SDS011;3010;51.028;4.170;2023-06-22T09:43:31;20.20;;;17.73;;
5967;SDS011;3010;51.028;4.170;2023-06-22T09:45:57;22.30;;;19.90;;
5967;SDS011;3010;51.028;4.170;2023-06-22T09:48:24;20.33;;;18.17;;
5967;SDS011;3010;51.028;4.170;2023-06-22T09:50:51;21.60;;;19.20;;
5967;SDS011;3010;51.028;4.170;2023-06-22T09:53:17;22.50;;;19.73;;
5967;SDS011;3010;51.028;4.170;2023-06-22T09:55:44;22.03;;;19.73;;
5967;SDS011;3010;51.028;4.170;2023-06-22T09:58:10;21.60;;;18.80;;
5967;SDS011;3010;51.028;4.170;2023-06-22T10:00:37;22.13;;;19.73;;
5967;SDS011;3010;51.028;4.170;2023-06-22T10:03:04;24.52;;;21.95;;
5967;SDS011;3010;51.028;4.170;2023-06-22T10:05:30;25.17;;;19.17;;
5967;SDS011;3010;51.028;4.170;2023-06-22T10:07:57;24.67;;;19.07;;
5967;SDS011;3010;51.028;4.170;2023-06-22T10:10:23;26.43;;;19.50;;
5967;SDS011;3010;51.028;4.170;2023-06-22T10:12:56;23.15;;;20.80;;
5967;SDS011;3010;51.028;4.170;2023-06-22T10:15:23;23.67;;;19.50;;
5967;SDS011;3010;51.028;4.170;2023-06-22T10:17:49;23.65;;;20.37;;
5967;SDS011;3010;51.028;4.170;2023-06-22T10:20:16;30.87;;;20.17;;
5967;SDS011;3010;51.028;4.170;2023-06-22T10:22:43;27.00;;;20.93;;
5967;SDS011;3010;51.028;4.170;2023-06-22T10:25:09;24.83;;;19.90;;
5967;SDS011;3010;51.028;4.170;2023-06-22T10:27:35;27.43;;;19.87;;
5967;SDS011;3010;51.028;4.170;2023-06-22T10:30:02;28.03;;;20.57;;
5967;SDS011;3010;51.028;4.170;2023-06-22T10:32:29;23.85;;;21.20;;
5967;SDS011;3010;51.028;4.170;2023-06-22T10:34:55;24.60;;;19.87;;
5967;SDS011;3010;51.028;4.170;2023-06-22T10:37:22;33.57;;;21.60;;
5967;SDS011;3010;51.028;4.170;2023-06-22T10:39:49;31.50;;;22.40;;
5967;SDS011;3010;51.028;4.170;2023-06-22T10:42:15;32.37;;;23.03;;
5967;SDS011;3010;51.028;4.170;2023-06-22T10:44:42;31.58;;;25.42;;
5967;SDS011;3010;51.028;4.170;2023-06-22T10:47:08;26.43;;;23.73;;
5967;SDS011;3010;51.028;4.170;2023-06-22T10:49:35;29.17;;;23.97;;
5967;SDS011;3010;51.028;4.170;2023-06-22T10:52:01;26.83;;;22.70;;
5967;SDS011;3010;51.028;4.170;2023-06-22T10:54:28;27.33;;;21.73;;
5967;SDS011;3010;51.028;4.170;2023-06-22T10:56:55;31.27;;;26.20;;
5967;SDS011;3010;51.028;4.170;2023-06-22T10:59:21;33.23;;;24.97;;
5967;SDS011;3010;51.028;4.170;2023-06-22T11:01:48;29.40;;;24.60;;
5967;SDS011;3010;51.028;4.170;2023-06-22T11:04:14;28.63;;;24.90;;
5967;SDS011;3010;51.028;4.170;2023-06-22T11:06:41;29.93;;;25.23;;
5967;SDS011;3010;51.028;4.170;2023-06-22T11:09:08;32.00;;;25.07;;
5967;SDS011;3010;51.028;4.170;2023-06-22T11:11:34;36.77;;;26.17;;
5967;SDS011;3010;51.028;4.170;2023-06-22T11:14:01;35.13;;;27.67;;
5967;SDS011;3010;51.028;4.170;2023-06-22T11:16:27;35.97;;;28.80;;
5967;SDS011;3010;51.028;4.170;2023-06-22T11:18:54;34.10;;;27.70;;
5967;SDS011;3010;51.028;4.170;2023-06-22T11:21:21;33.70;;;27.17;;
5967;SDS011;3010;51.028;4.170;2023-06-22T11:23:47;35.37;;;28.10;;
5967;SDS011;3010;51.028;4.170;2023-06-22T11:26:14;34.67;;;28.03;;
5967;SDS011;3010;51.028;4.170;2023-06-22T11:28:41;34.20;;;27.63;;
5967;SDS011;3010;51.028;4.170;2023-06-22T11:31:07;30.30;;;26.37;;
5967;SDS011;3010;51.028;4.170;2023-06-22T11:33:34;37.90;;;26.60;;
5967;SDS011;3010;51.028;4.170;2023-06-22T11:36:00;29.37;;;25.10;;
5967;SDS011;3010;51.028;4.170;2023-06-22T11:38:27;33.37;;;25.10;;
5967;SDS011;3010;51.028;4.170;2023-06-22T11:40:54;32.53;;;25.17;;
5967;SDS011;3010;51.028;4.170;2023-06-22T11:43:20;35.83;;;26.37;;
5967;SDS011;3010;51.028;4.170;2023-06-22T11:45:47;34.87;;;27.17;;
5967;SDS011;3010;51.028;4.170;2023-06-22T11:48:13;30.13;;;25.83;;
5967;SDS011;3010;51.028;4.170;2023-06-22T11:50:40;30.40;;;26.07;;
5967;SDS011;3010;51.028;4.170;2023-06-22T11:53:07;27.60;;;24.00;;
5967;SDS011;3010;51.028;4.170;2023-06-22T11:55:33;33.17;;;23.27;;
5967;SDS011;3010;51.028;4.170;2023-06-22T11:58:00;30.12;;;25.55;;
5967;SDS011;3010;51.028;4.170;2023-06-22T12:00:26;28.95;;;25.05;;
5967;SDS011;3010;51.028;4.170;2023-06-22T12:02:53;27.80;;;22.33;;
5967;SDS011;3010;51.028;4.170;2023-06-22T12:05:20;26.70;;;23.10;;
5967;SDS011;3010;51.028;4.170;2023-06-22T12:07:46;29.07;;;22.77;;
5967;SDS011;3010;51.028;4.170;2023-06-22T12:10:13;26.70;;;22.77;;
5967;SDS011;3010;51.028;4.170;2023-06-22T12:12:40;30.63;;;23.50;;
5967;SDS011;3010;51.028;4.170;2023-06-22T12:15:06;29.53;;;23.23;;
5967;SDS011;3010;51.028;4.170;2023-06-22T12:17:33;29.77;;;24.23;;
5967;SDS011;3010;51.028;4.170;2023-06-22T12:19:59;31.80;;;24.20;;
5967;SDS011;3010;51.028;4.170;2023-06-22T12:22:26;31.20;;;24.27;;
5967;SDS011;3010;51.028;4.170;2023-06-22T12:24:52;29.47;;;24.33;;
5967;SDS011;3010;51.028;4.170;2023-06-22T12:27:19;33.72;;;28.77;;
5967;SDS011;3010;51.028;4.170;2023-06-22T12:29:46;30.67;;;25.80;;
5967;SDS011;3010;51.028;4.170;2023-06-22T12:32:12;31.97;;;25.90;;
5967;SDS011;3010;51.028;4.170;2023-06-22T12:34:39;32.53;;;26.17;;
5967;SDS011;3010;51.028;4.170;2023-06-22T12:37:06;34.33;;;26.47;;
5967;SDS011;3010;51.028;4.170;2023-06-22T12:39:32;36.87;;;26.33;;
5967;SDS011;3010;51.028;4.170;2023-06-22T12:41:59;36.93;;;27.00;;
5967;SDS011;3010;51.028;4.170;2023-06-22T12:44:25;36.03;;;27.43;;
5967;SDS011;3010;51.028;4.170;2023-06-22T12:46:52;33.60;;;27.10;;
5967;SDS011;3010;51.028;4.170;2023-06-22T12:49:19;37.90;;;27.73;;
5967;SDS011;3010;51.028;4.170;2023-06-22T12:51:45;35.83;;;28.23;;
5967;SDS011;3010;51.028;4.170;2023-06-22T12:54:12;36.37;;;28.03;;
5967;SDS011;3010;51.028;4.170;2023-06-22T12:56:38;36.20;;;28.30;;
5967;SDS011;3010;51.028;4.170;2023-06-22T12:59:05;39.07;;;29.47;;
5967;SDS011;3010;51.028;4.170;2023-06-22T13:01:32;46.80;;;30.80;;
5967;SDS011;3010;51.028;4.170;2023-06-22T13:03:58;39.13;;;29.73;;
5967;SDS011;3010;51.028;4.170;2023-06-22T13:06:25;40.90;;;31.47;;
5967;SDS011;3010;51.028;4.170;2023-06-22T13:08:51;46.80;;;37.80;;
5967;SDS011;3010;51.028;4.170;2023-06-22T13:11:18;47.50;;;33.63;;
5967;SDS011;3010;51.028;4.170;2023-06-22T13:13:45;45.37;;;33.57;;
5967;SDS011;3010;51.028;4.170;2023-06-22T13:16:11;44.80;;;34.43;;
5967;SDS011;3010;51.028;4.170;2023-06-22T13:18:38;51.07;;;35.77;;
5967;SDS011;3010;51.028;4.170;2023-06-22T13:21:04;50.97;;;39.83;;
5967;SDS011;3010;51.028;4.170;2023-06-22T13:23:31;46.10;;;35.03;;
5967;SDS011;3010;51.028;4.170;2023-06-22T13:25:58;48.30;;;34.90;;
5967;SDS011;3010;51.028;4.170;2023-06-22T13:28:24;48.03;;;35.63;;
5967;SDS011;3010;51.028;4.170;2023-06-22T13:30:51;52.67;;;37.97;;
5967;SDS011;3010;51.028;4.170;2023-06-22T13:33:17;48.97;;;35.77;;
5967;SDS011;3010;51.028;4.170;2023-06-22T13:35:44;55.23;;;36.33;;
5967;SDS011;3010;51.028;4.170;2023-06-22T13:38:11;52.00;;;36.03;;
5967;SDS011;3010;51.028;4.170;2023-06-22T13:40:37;50.87;;;35.70;;
5967;SDS011;3010;51.028;4.170;2023-06-22T13:43:04;49.53;;;34.60;;
5967;SDS011;3010;51.028;4.170;2023-06-22T13:45:31;47.63;;;34.50;;
5967;SDS011;3010;51.028;4.170;2023-06-22T13:47:57;47.33;;;34.70;;
5967;SDS011;3010;51.028;4.170;2023-06-22T13:50:24;52.57;;;35.33;;
5967;SDS011;3010;51.028;4.170;2023-06-22T13:52:50;47.03;;;34.30;;
5967;SDS011;3010;51.028;4.170;2023-06-22T13:55:17;49.63;;;35.23;;
5967;SDS011;3010;51.028;4.170;2023-06-22T13:57:43;51.90;;;35.43;;
5967;SDS011;3010;51.028;4.170;2023-06-22T14:00:10;54.00;;;35.70;;
5967;SDS011;3010;51.028;4.170;2023-06-22T14:02:37;50.43;;;36.40;;
5967;SDS011;3010;51.028;4.170;2023-06-22T14:05:03;53.13;;;34.87;;
5967;SDS011;3010;51.028;4.170;2023-06-22T14:07:30;62.43;;;43.10;;
5967;SDS011;3010;51.028;4.170;2023-06-22T14:09:57;54.43;;;37.30;;
5967;SDS011;3010;51.028;4.170;2023-06-22T14:12:24;56.93;;;36.03;;
5967;SDS011;3010;51.028;4.170;2023-06-22T14:14:50;55.60;;;38.07;;
5967;SDS011;3010;51.028;4.170;2023-06-22T14:17:16;58.07;;;36.57;;
5967;SDS011;3010;51.028;4.170;2023-06-22T14:19:43;60.00;;;38.27;;
5967;SDS011;3010;51.028;4.170;2023-06-22T14:22:10;54.87;;;37.37;;
5967;SDS011;3010;51.028;4.170;2023-06-22T14:24:36;58.97;;;38.90;;
5967;SDS011;3010;51.028;4.170;2023-06-22T14:27:03;60.30;;;40.37;;
5967;SDS011;3010;51.028;4.170;2023-06-22T14:29:29;68.07;;;47.53;;
5967;SDS011;3010;51.028;4.170;2023-06-22T14:31:56;62.53;;;42.87;;
5967;SDS011;3010;51.028;4.170;2023-06-22T14:34:23;61.07;;;42.80;;
5967;SDS011;3010;51.028;4.170;2023-06-22T14:36:49;67.05;;;48.22;;
5967;SDS011;3010;51.028;4.170;2023-06-22T14:39:16;74.13;;;45.30;;
5967;SDS011;3010;51.028;4.170;2023-06-22T14:41:42;65.27;;;43.67;;
5967;SDS011;3010;51.028;4.170;2023-06-22T14:44:09;62.87;;;43.27;;
5967;SDS011;3010;51.028;4.170;2023-06-22T14:46:36;60.90;;;41.77;;
5967;SDS011;3010;51.028;4.170;2023-06-22T14:49:02;66.50;;;44.30;;
5967;SDS011;3010;51.028;4.170;2023-06-22T14:51:29;62.50;;;43.63;;
5967;SDS011;3010;51.028;4.170;2023-06-22T14:53:55;62.37;;;43.57;;
5967;SDS011;3010;51.028;4.170;2023-06-22T14:56:22;62.20;;;44.63;;
5967;SDS011;3010;51.028;4.170;2023-06-22T14:58:49;66.57;;;46.93;;
5967;SDS011;3010;51.028;4.170;2023-06-22T15:01:18;63.10;;;44.63;;
5967;SDS011;3010;51.028;4.170;2023-06-22T15:03:45;64.30;;;45.03;;